Time;durP1;ratioP1;P1;durP2;ratioP2;P2;SDS_P1;SDS_P2;PMS_P1;PMS_P2;Temp;Humidity;BMP_temperature;BMP_pressure;BME280_temperature;BME280_humidity;BME280_pressure;Samples;Min_cycle;Max_cycle;Signal;HPM_P1;HPM_P2
2021/09/24 00:01:55;;;;;;;5.80;2.90;;;;;;;13.76;75.55;99007.05;230538;1195;138494;-75
2021/09/24 00:07:12;;;;;;;5.10;1.90;;;;;;;13.64;74.10;99042.13;229639;1197;139121;-77
2021/09/24 00:12:14;;;;;;;4.40;1.30;;;;;;;13.40;68.82;99049.65;230635;1196;138644;-75
2021/09/24 00:17:16;;;;;;;4.50;1.60;;;;;;;13.25;64.61;99061.34;230642;1197;138058;-77
2021/09/24 00:22:18;;;;;;;4.20;1.20;;;;;;;13.07;63.94;99065.79;230623;1195;138596;-76
2021/09/24 00:27:19;;;;;;;12.10;9.70;;;;;;;12.81;64.60;99074.42;230649;1196;138076;-77
2021/09/24 00:32:22;;;;;;;9.00;2.00;;;;;;;12.64;66.18;99080.23;230377;1196;138899;-75
2021/09/24 00:37:23;;;;;;;8.90;2.60;;;;;;;12.50;65.38;99085.23;230705;1195;137836;-77
2021/09/24 00:42:25;;;;;;;10.60;4.20;;;;;;;12.28;65.57;99088.77;231398;1196;138336;-76
2021/09/24 00:47:27;;;;;;;8.50;2.90;;;;;;;12.13;65.87;99098.25;232751;1195;138617;-75
2021/09/24 00:52:29;;;;;;;5.20;1.90;;;;;;;12.03;65.85;99100.69;230745;1196;138038;-77
2021/09/24 00:57:30;;;;;;;7.30;1.70;;;;;;;11.92;65.24;99108.39;230423;1196;138270;-75
2021/09/24 01:02:32;;;;;;;5.30;1.30;;;;;;;11.81;64.99;99094.52;230730;1196;138240;-77
2021/09/24 01:07:35;;;;;;;7.20;2.00;;;;;;;11.79;65.06;99095.96;230752;1196;138543;-75
2021/09/24 01:12:38;;;;;;;6.20;1.60;;;;;;;11.72;65.39;99093.44;230763;1196;138423;-76
2021/09/24 01:17:41;;;;;;;6.40;1.60;;;;;;;11.64;66.18;99090.68;231062;1196;138906;-77
2021/09/24 01:22:43;;;;;;;10.80;1.60;;;;;;;11.54;66.50;99086.73;230638;1195;138790;-75
2021/09/24 01:27:45;;;;;;;6.40;1.90;;;;;;;11.54;66.85;99083.31;230816;1195;138554;-75
2021/09/24 01:32:48;;;;;;;7.10;2.50;;;;;;;11.52;67.48;99095.84;230671;1197;138234;-76
2021/09/24 01:37:50;;;;;;;6.20;1.60;;;;;;;11.46;67.79;99105.67;230409;1196;138715;-72
2021/09/24 01:42:53;;;;;;;7.50;2.30;;;;;;;11.44;69.29;99119.86;230640;1196;138529;-76
2021/09/24 01:47:55;;;;;;;6.80;1.90;;;;;;;11.50;71.16;99118.23;230055;1190;138520;-75
2021/09/24 01:52:57;;;;;;;6.20;1.90;;;;;;;11.56;72.16;99117.03;230726;1196;140038;-77
2021/09/24 01:57:59;;;;;;;12.10;2.20;;;;;;;11.63;71.99;99119.34;230719;1196;138050;-75
2021/09/24 02:03:00;;;;;;;6.40;1.90;;;;;;;11.63;72.11;99118.31;230799;1196;138632;-77
2021/09/24 02:08:02;;;;;;;7.20;1.60;;;;;;;11.61;71.55;99120.09;230835;1196;139001;-76
2021/09/24 02:13:04;;;;;;;5.20;1.50;;;;;;;11.60;71.20;99116.20;230706;1195;137855;-76
2021/09/24 02:18:05;;;;;;;9.10;2.30;;;;;;;11.61;70.88;99122.63;230765;1196;138793;-77
2021/09/24 02:23:07;;;;;;;8.00;2.30;;;;;;;11.60;70.86;99119.15;230826;1195;138711;-76
2021/09/24 02:28:09;;;;;;;10.30;2.40;;;;;;;11.53;71.06;99119.14;230688;1195;138182;-77
2021/09/24 02:33:11;;;;;;;8.90;1.60;;;;;;;11.47;71.22;99122.13;230648;1195;138771;-77
2021/09/24 02:38:13;;;;;;;7.40;1.40;;;;;;;11.39;71.42;99133.00;230864;1196;138666;-77
2021/09/24 02:43:15;;;;;;;9.90;2.20;;;;;;;11.34;71.59;99129.30;230465;1181;138319;-76
2021/09/24 02:48:17;;;;;;;11.60;2.10;;;;;;;11.28;71.98;99133.63;229857;1195;139154;-74
2021/09/24 02:53:19;;;;;;;10.20;2.10;;;;;;;11.28;71.74;99148.36;230221;1197;138184;-77
2021/09/24 02:58:20;;;;;;;5.90;1.90;;;;;;;11.18;72.71;99160.66;230543;1196;138587;-76
2021/09/24 03:03:22;;;;;;;9.80;2.00;;;;;;;11.05;74.83;99161.41;230182;1197;138661;-75
2021/09/24 03:08:24;;;;;;;7.20;1.80;;;;;;;10.91;75.74;99168.46;230510;1196;138733;-77
2021/09/24 03:13:26;;;;;;;10.40;2.10;;;;;;;10.83;76.83;99178.48;230243;1196;138505;-76
2021/09/24 03:18:27;;;;;;;8.00;1.90;;;;;;;10.77;77.16;99180.08;230716;1196;138918;-77
2021/09/24 03:23:29;;;;;;;7.30;1.90;;;;;;;10.80;76.78;99187.08;230877;1196;138729;-76
2021/09/24 03:28:31;;;;;;;8.30;2.50;;;;;;;10.87;75.84;99195.80;230273;1196;138215;-76
2021/09/24 03:33:33;;;;;;;5.40;1.30;;;;;;;10.98;75.25;99203.15;230762;1196;138525;-77
2021/09/24 03:38:35;;;;;;;6.50;1.60;;;;;;;11.01;75.51;99212.06;230861;1196;139424;-77
2021/09/24 03:43:37;;;;;;;7.30;1.90;;;;;;;11.02;75.01;99219.71;230695;1197;137888;-76
2021/09/24 03:48:39;;;;;;;9.10;2.40;;;;;;;11.04;75.25;99217.94;230657;1196;138334;-77
2021/09/24 03:53:41;;;;;;;10.30;2.20;;;;;;;10.89;76.51;99223.89;230678;1196;138563;-76
2021/09/24 03:58:43;;;;;;;14.40;2.50;;;;;;;10.81;77.21;99225.23;230787;1195;139148;-74
2021/09/24 04:03:44;;;;;;;4.80;2.00;;;;;;;10.82;77.05;99245.45;230783;1195;138677;-76
2021/09/24 04:08:46;;;;;;;4.20;2.00;;;;;;;10.87;76.18;99246.23;230433;1196;139714;-77
2021/09/24 04:13:48;;;;;;;8.10;2.00;;;;;;;10.94;75.51;99251.99;230659;1195;138866;-77
2021/09/24 04:18:50;;;;;;;5.40;1.70;;;;;;;10.97;75.36;99269.08;231039;1195;138996;-76
2021/09/24 04:23:52;;;;;;;6.20;2.00;;;;;;;11.00;75.63;99265.81;230858;1196;139196;-77
2021/09/24 04:28:54;;;;;;;7.10;2.10;;;;;;;10.98;75.75;99269.33;230794;1196;138925;-75
2021/09/24 04:33:55;;;;;;;8.40;2.30;;;;;;;10.91;76.29;99279.48;231600;1196;138784;-76
2021/09/24 04:38:57;;;;;;;8.90;2.20;;;;;;;10.79;76.96;99278.48;230716;1196;139917;-77
2021/09/24 04:43:59;;;;;;;10.10;3.00;;;;;;;10.83;76.88;99284.44;230771;1196;139194;-77
2021/09/24 04:49:02;;;;;;;6.60;2.60;;;;;;;10.74;77.22;99290.95;233039;1195;138520;-76
2021/09/24 04:54:04;;;;;;;9.20;2.00;;;;;;;10.72;77.29;99298.42;230675;1196;138622;-77
2021/09/24 04:59:06;;;;;;;9.90;2.60;;;;;;;10.78;76.89;99307.19;230801;1196;139114;-77
2021/09/24 05:04:08;;;;;;;6.50;1.50;;;;;;;10.83;77.01;99313.45;231061;1195;137889;-79
2021/09/24 05:09:09;;;;;;;6.20;2.10;;;;;;;10.82;77.03;99328.19;230551;1195;139606;-77
2021/09/24 05:14:11;;;;;;;7.50;2.30;;;;;;;10.86;77.09;99333.55;230681;1196;138975;-77
2021/09/24 05:19:13;;;;;;;6.80;2.30;;;;;;;10.87;77.15;99335.17;230703;1195;138209;-78
2021/09/24 05:24:14;;;;;;;6.60;2.10;;;;;;;10.93;77.27;99343.16;230675;1196;138877;-76
2021/09/24 05:29:16;;;;;;;8.80;1.80;;;;;;;10.95;77.44;99349.56;230383;1196;138992;-76
2021/09/24 05:34:20;;;;;;;9.50;2.60;;;;;;;10.96;78.08;99359.35;230123;1196;138168;-76
2021/09/24 05:39:21;;;;;;;8.50;2.60;;;;;;;11.01;78.50;99365.27;230663;1186;138136;-77
2021/09/24 05:44:23;;;;;;;10.00;2.60;;;;;;;10.99;78.31;99370.39;230739;1196;137941;-77
2021/09/24 05:49:29;;;;;;;9.70;2.20;;;;;;;11.02;78.39;99380.84;230656;1195;140661;-77
2021/09/24 05:54:31;;;;;;;12.30;2.50;;;;;;;11.06;78.04;99382.34;230504;1195;138900;-76
2021/09/24 05:59:33;;;;;;;11.80;2.80;;;;;;;11.07;77.84;99389.08;230627;1187;139019;-76
2021/09/24 06:04:34;;;;;;;10.90;2.90;;;;;;;11.04;78.05;99389.04;230671;1194;138315;-78
2021/09/24 06:09:36;;;;;;;7.10;3.30;;;;;;;11.07;77.96;99386.60;230620;1195;139472;-76
2021/09/24 06:14:38;;;;;;;9.80;2.30;;;;;;;11.06;78.24;99398.17;230493;1196;138140;-76
2021/09/24 06:19:40;;;;;;;7.80;2.30;;;;;;;11.03;78.28;99405.70;230328;1194;138377;-77
2021/09/24 06:24:44;;;;;;;9.30;2.70;;;;;;;11.07;77.99;99402.30;230655;1195;138536;-77
2021/09/24 06:29:50;;;;;;;10.00;3.00;;;;;;;11.10;77.51;99403.88;230742;1196;139382;-77
2021/09/24 06:34:51;;;;;;;;;;;;;;;11.15;77.52;99413.86;230556;1196;138301;-77
2021/09/24 06:39:53;;;;;;;9.80;2.80;;;;;;;11.22;77.46;99418.88;230641;1196;124594;-75
2021/09/24 06:44:57;;;;;;;9.20;2.50;;;;;;;11.29;77.26;99412.17;231119;1195;138934;-75
2021/09/24 06:49:59;;;;;;;7.80;2.40;;;;;;;11.34;76.85;99412.37;230704;1196;151691;-76
2021/09/24 06:55:04;;;;;;;10.10;2.90;;;;;;;11.42;76.88;99418.20;230445;1196;139396;-76
2021/09/24 07:00:07;;;;;;;8.80;2.60;;;;;;;11.51;76.18;99420.84;230745;1196;139845;-76
2021/09/24 07:05:10;;;;;;;11.80;2.60;;;;;;;11.57;75.94;99441.23;230735;1196;138924;-76
2021/09/24 07:10:12;;;;;;;5.80;1.90;;;;;;;11.58;76.13;99438.23;230714;1196;141905;-76
2021/09/24 07:15:14;;;;;;;9.00;2.50;;;;;;;11.61;76.12;99442.27;230366;1196;138720;-76
2021/09/24 07:20:16;;;;;;;8.30;2.00;;;;;;;11.67;75.65;99449.48;230650;1195;138533;-76
2021/09/24 07:25:18;;;;;;;12.10;2.40;;;;;;;11.70;75.28;99468.89;230726;1196;139437;-79
2021/09/24 07:30:20;;;;;;;9.60;2.10;;;;;;;11.78;74.57;99474.11;230589;1196;139281;-77
2021/09/24 07:35:21;;;;;;;9.70;1.90;;;;;;;11.90;74.48;99469.84;230525;1195;138806;-77
2021/09/24 07:40:24;;;;;;;6.90;2.00;;;;;;;12.02;73.57;99475.54;230308;1196;138552;-77
2021/09/24 07:45:26;;;;;;;5.50;1.90;;;;;;;12.15;72.81;99486.36;230732;1196;138441;-76
2021/09/24 07:50:28;;;;;;;8.00;2.10;;;;;;;12.21;72.40;99496.85;230647;1196;138546;-76
2021/09/24 07:55:30;;;;;;;7.40;2.10;;;;;;;12.35;72.62;99502.18;230527;1196;138539;-77
2021/09/24 08:00:32;;;;;;;7.60;2.10;;;;;;;12.48;72.32;99502.02;230535;1195;139072;-76
2021/09/24 08:05:34;;;;;;;5.90;1.80;;;;;;;12.51;71.58;99514.02;230884;1195;138238;-77
2021/09/24 08:10:36;;;;;;;7.90;2.40;;;;;;;12.54;71.88;99520.81;230795;1196;138483;-74
2021/09/24 08:15:43;;;;;;;9.00;1.70;;;;;;;12.49;71.61;99519.09;230558;1196;138094;-76
2021/09/24 08:20:45;;;;;;;8.60;3.00;;;;;;;12.51;72.08;99519.33;230408;1195;138361;-75
2021/09/24 08:25:47;;;;;;;7.20;2.10;;;;;;;12.57;72.10;99517.05;232256;1195;138646;-80
2021/09/24 08:30:49;;;;;;;8.50;3.40;;;;;;;12.74;71.31;99518.44;231242;1196;138546;-80
2021/09/24 08:35:51;;;;;;;6.30;2.10;;;;;;;12.84;70.99;99521.79;230321;1196;137885;-76
2021/09/24 08:40:53;;;;;;;11.80;3.10;;;;;;;12.96;70.28;99516.94;230477;1195;138557;-78
2021/09/24 08:45:54;;;;;;;11.30;5.10;;;;;;;13.12;69.33;99518.86;230748;1196;138933;-75
2021/09/24 08:50:56;;;;;;;6.90;2.50;;;;;;;13.21;68.92;99521.89;230681;1187;138360;-76
2021/09/24 08:55:58;;;;;;;8.30;2.00;;;;;;;13.28;68.32;99532.34;230432;1196;138198;-72
2021/09/24 09:01:00;;;;;;;12.00;5.60;;;;;;;13.27;68.51;99528.20;230371;1196;137795;-77
2021/09/24 09:06:03;;;;;;;10.60;2.80;;;;;;;13.53;68.53;99542.53;230700;1196;138809;-76
2021/09/24 09:11:14;;;;;;;13.10;3.30;;;;;;;13.43;67.83;99546.17;230756;1196;138725;-76
2021/09/24 09:16:30;;;;;;;6.10;2.80;;;;;;;13.45;67.40;99555.63;230426;1196;138638;-77
2021/09/24 09:21:32;;;;;;;7.40;2.60;;;;;;;13.54;66.38;99569.13;230712;1196;138712;-76
2021/09/24 09:26:34;;;;;;;10.00;2.60;;;;;;;13.40;66.57;99560.86;231452;1195;138692;-76
2021/09/24 09:31:36;;;;;;;8.40;2.70;;;;;;;13.41;67.13;99557.60;230806;1195;138596;-77
2021/09/24 09:36:42;;;;;;;7.30;2.20;;;;;;;13.43;67.46;99560.14;230794;1196;138973;-74
2021/09/24 09:41:52;;;;;;;7.60;3.80;;;;;;;13.45;67.26;99557.67;230292;1196;138575;-77
2021/09/24 09:46:54;;;;;;;5.30;2.80;;;;;;;13.64;67.10;99567.98;230755;1196;138168;-76
2021/09/24 09:52:09;;;;;;;8.40;2.30;;;;;;;13.71;66.22;99578.05;230706;1195;138632;-75
2021/09/24 09:57:19;;;;;;;5.10;1.80;;;;;;;13.79;65.62;99576.39;230535;1196;139210;-76
2021/09/24 10:02:32;;;;;;;7.00;2.00;;;;;;;13.83;65.29;99582.46;230499;1196;138034;-77
2021/09/24 10:07:39;;;;;;;7.10;2.80;;;;;;;14.08;63.91;99584.64;230680;1196;138562;-78
2021/09/24 10:12:43;;;;;;;8.40;2.50;;;;;;;14.20;64.08;99581.45;230781;1196;138302;-74
2021/09/24 10:17:45;;;;;;;10.90;3.50;;;;;;;14.22;63.91;99585.77;230436;1196;138124;-78
2021/09/24 10:22:47;;;;;;;7.30;1.90;;;;;;;14.35;62.97;99583.34;230330;1196;138147;-76
2021/09/24 10:27:49;;;;;;;5.20;1.80;;;;;;;14.57;62.49;99592.08;230818;1195;138484;-78
2021/09/24 10:33:07;;;;;;;4.40;1.70;;;;;;;14.21;62.27;99593.33;230819;1195;139246;-76
2021/09/24 10:38:09;;;;;;;3.40;1.20;;;;;;;14.25;61.98;99595.88;230431;1196;138244;-77
2021/09/24 10:43:14;;;;;;;3.80;1.60;;;;;;;14.50;61.22;99595.45;230239;1196;138117;-77
2021/09/24 10:48:22;;;;;;;4.80;1.70;;;;;;;14.61;61.24;99600.50;230730;1195;138455;-76
2021/09/24 10:53:29;;;;;;;6.90;2.30;;;;;;;14.79;61.74;99598.33;230735;1197;138168;-76
2021/09/24 10:58:30;;;;;;;6.00;1.60;;;;;;;14.77;61.57;99605.14;230530;1196;138528;-76
2021/09/24 11:03:48;;;;;;;5.30;2.10;;;;;;;14.41;61.80;99605.98;230537;1196;138717;-75
2021/09/24 11:08:50;;;;;;;5.80;2.10;;;;;;;14.27;62.37;99604.80;231718;1195;138864;-76
2021/09/24 11:13:54;;;;;;;5.50;2.50;;;;;;;14.27;61.81;99605.34;233229;1195;138752;-77
2021/09/24 11:18:58;;;;;;;3.30;1.40;;;;;;;14.15;63.81;99613.52;231814;1196;138409;-75
2021/09/24 11:24:03;;;;;;;5.40;1.70;;;;;;;14.07;64.13;99613.73;230756;1196;138458;-77
2021/09/24 11:29:09;;;;;;;3.50;1.70;;;;;;;14.21;64.45;99613.11;230873;1195;139265;-76
2021/09/24 11:34:10;;;;;;;4.40;2.10;;;;;;;14.22;64.01;99614.67;230729;1199;137894;-76
2021/09/24 11:39:12;;;;;;;8.60;2.10;;;;;;;14.31;64.04;99625.44;230443;1196;138756;-74
2021/09/24 11:44:14;;;;;;;4.90;2.10;;;;;;;14.56;62.78;99618.67;230469;1196;138805;-74
2021/09/24 11:49:16;;;;;;;4.70;1.80;;;;;;;14.89;61.69;99623.46;230658;1196;138835;-77
2021/09/24 11:54:21;;;;;;;4.40;1.60;;;;;;;14.93;61.64;99628.20;230783;1196;138982;-76
2021/09/24 11:59:23;;;;;;;5.80;1.60;;;;;;;15.05;59.88;99635.93;230646;1196;138710;-75
2021/09/24 12:04:24;;;;;;;5.70;1.50;;;;;;;14.66;59.25;99626.05;232187;1193;138461;-79
2021/09/24 12:09:26;;;;;;;7.80;1.80;;;;;;;14.66;60.38;99628.14;232096;1195;138522;-76
2021/09/24 12:14:29;;;;;;;3.40;1.60;;;;;;;14.52;61.67;99631.18;230934;1196;137741;-76
2021/09/24 12:19:37;;;;;;;5.10;1.30;;;;;;;14.49;60.67;99633.16;230760;1196;137654;-76
2021/09/24 12:24:45;;;;;;;6.90;1.70;;;;;;;14.59;58.80;99639.36;230888;1196;138292;-76
2021/09/24 12:29:48;;;;;;;5.00;1.70;;;;;;;14.71;58.83;99646.63;230562;1195;137938;-75
2021/09/24 12:35:03;;;;;;;5.80;1.90;;;;;;;14.53;60.46;99650.48;230524;1195;138213;-78
2021/09/24 12:40:10;;;;;;;7.30;1.60;;;;;;;14.80;59.09;99666.83;230723;1194;138226;-75
2021/09/24 12:45:25;;;;;;;7.30;1.80;;;;;;;14.76;57.42;99665.14;230862;1196;138484;-75
2021/09/24 12:50:27;;;;;;;;;;;;;;;14.65;59.40;99665.48;230543;1196;138019;-74
2021/09/24 12:55:30;;;;;;;9.00;1.80;;;;;;;14.45;60.85;99677.46;230747;1196;124817;-75
2021/09/24 13:00:33;;;;;;;6.20;2.10;;;;;;;14.58;59.91;99690.34;232319;1196;138230;-76
2021/09/24 13:05:35;;;;;;;9.00;1.70;;;;;;;15.13;58.59;99694.38;231877;1195;138224;-78
2021/09/24 13:10:37;;;;;;;6.40;1.50;;;;;;;15.61;57.07;99698.53;231976;1196;138023;-76
2021/09/24 13:15:39;;;;;;;4.60;1.30;;;;;;;15.32;56.10;99694.40;230720;1196;138077;-76
2021/09/24 13:20:41;;;;;;;4.70;1.70;;;;;;;15.15;57.44;99697.05;230401;1196;139976;-78
2021/09/24 13:25:43;;;;;;;7.60;1.60;;;;;;;15.16;57.60;99702.95;231051;1196;139748;-77
2021/09/24 13:30:45;;;;;;;7.40;1.80;;;;;;;15.15;57.99;99705.00;230514;1195;137827;-75
2021/09/24 13:35:47;;;;;;;7.30;1.40;;;;;;;15.46;56.39;99705.48;230523;1195;137695;-76
2021/09/24 13:40:48;;;;;;;5.50;1.70;;;;;;;14.96;57.78;99699.27;230779;1196;137952;-76
2021/09/24 13:45:51;;;;;;;8.20;2.10;;;;;;;15.41;57.74;99705.44;230589;1196;138849;-77
2021/09/24 13:50:52;;;;;;;6.60;2.00;;;;;;;15.13;57.92;99710.11;230624;1196;138190;-77
2021/09/24 13:55:54;;;;;;;10.10;1.80;;;;;;;15.07;57.85;99718.77;230524;1195;138796;-78
2021/09/24 14:00:56;;;;;;;7.20;2.20;;;;;;;15.32;57.02;99724.22;230774;1196;138519;-77
2021/09/24 14:05:58;;;;;;;6.20;2.10;;;;;;;14.98;57.56;99729.49;230788;1196;138172;-77
2021/09/24 14:11:00;;;;;;;6.60;2.00;;;;;;;14.79;57.97;99731.34;230651;1196;138474;-76
2021/09/24 14:16:02;;;;;;;5.60;1.80;;;;;;;14.72;58.63;99746.88;230633;1197;139002;-77
2021/09/24 14:21:05;;;;;;;4.60;1.50;;;;;;;14.94;57.27;99746.79;230626;1197;138050;-75
2021/09/24 14:26:06;;;;;;;6.40;2.00;;;;;;;15.21;56.76;99740.08;230774;1197;138418;-78
2021/09/24 14:31:08;;;;;;;7.40;2.00;;;;;;;15.20;56.22;99747.77;230698;1197;137944;-75
2021/09/24 14:36:12;;;;;;;3.00;1.10;;;;;;;15.14;55.71;99758.39;230597;1197;138211;-77
2021/09/24 14:41:13;;;;;;;10.40;2.10;;;;;;;15.06;56.17;99759.63;230744;1196;138373;-77
2021/09/24 14:46:15;;;;;;;7.60;2.00;;;;;;;14.89;56.52;99768.25;230825;1196;138571;-76
2021/09/24 14:51:17;;;;;;;10.40;1.80;;;;;;;14.78;57.27;99776.23;230642;1195;138737;-76
2021/09/24 14:56:19;;;;;;;5.50;1.90;;;;;;;14.67;56.67;99779.26;230570;1196;138711;-77
2021/09/24 15:01:20;;;;;;;6.30;2.00;;;;;;;14.59;56.76;99778.95;230774;1195;138656;-78
2021/09/24 15:06:22;;;;;;;4.50;2.00;;;;;;;14.52;57.20;99784.25;230837;1196;138374;-77
2021/09/24 15:11:24;;;;;;;6.50;2.00;;;;;;;14.45;57.67;99798.66;230789;1195;138412;-79
2021/09/24 15:16:26;;;;;;;9.00;2.10;;;;;;;14.43;57.30;99800.90;230704;1196;138940;-77
2021/09/24 15:21:27;;;;;;;7.60;2.20;;;;;;;14.48;56.62;99818.73;230754;1195;138570;-76
2021/09/24 15:26:29;;;;;;;10.20;1.90;;;;;;;14.53;55.71;99822.19;230844;1195;138284;-76
2021/09/24 15:31:31;;;;;;;6.50;1.50;;;;;;;14.56;55.74;99831.09;230965;1196;138766;-81
2021/09/24 15:36:33;;;;;;;4.80;1.30;;;;;;;14.56;55.56;99842.75;230831;1196;138458;-77
2021/09/24 15:41:36;;;;;;;8.40;1.70;;;;;;;14.58;55.79;99847.43;230709;1195;137951;-76
2021/09/24 15:46:38;;;;;;;10.50;2.10;;;;;;;14.57;55.92;99846.00;231988;1195;138362;-78
2021/09/24 15:51:44;;;;;;;6.90;1.70;;;;;;;14.54;56.37;99843.88;231143;1195;138370;-77
2021/09/24 15:56:46;;;;;;;5.20;2.00;;;;;;;14.38;57.23;99852.71;230589;1196;138333;-76
2021/09/24 16:01:47;;;;;;;8.10;1.90;;;;;;;14.27;57.66;99862.56;230582;1187;138053;-77
2021/09/24 16:06:49;;;;;;;7.40;2.00;;;;;;;14.20;57.72;99873.73;230717;1196;139388;-77
2021/09/24 16:11:51;;;;;;;6.90;2.40;;;;;;;14.09;58.09;99881.30;230611;1195;138000;-78
2021/09/24 16:16:53;;;;;;;7.20;2.20;;;;;;;13.99;58.55;99891.17;230658;1196;139022;-79
2021/09/24 16:21:54;;;;;;;5.20;1.80;;;;;;;13.90;58.75;99890.41;230354;1196;138492;-76
2021/09/24 16:26:56;;;;;;;7.20;2.00;;;;;;;13.78;59.07;99887.95;230607;1197;139062;-74
2021/09/24 16:31:58;;;;;;;7.50;2.10;;;;;;;13.74;59.54;99891.70;230516;1193;138383;-75
2021/09/24 16:37:01;;;;;;;6.50;2.60;;;;;;;13.63;60.49;99896.30;229396;1197;138579;-76
2021/09/24 16:42:02;;;;;;;6.50;2.80;;;;;;;13.52;61.44;99901.88;229508;1197;139542;-74
2021/09/24 16:47:04;;;;;;;6.90;2.20;;;;;;;13.39;62.04;99900.06;229626;1197;137929;-72
2021/09/24 16:52:06;;;;;;;8.00;2.70;;;;;;;13.32;62.38;99898.02;229639;1196;138730;-74
2021/09/24 16:57:08;;;;;;;6.30;2.90;;;;;;;13.24;62.74;99908.62;229585;1195;138206;-76
2021/09/24 17:02:10;;;;;;;9.60;3.40;;;;;;;13.19;63.02;99914.98;229216;1196;138435;-75
2021/09/24 17:07:13;;;;;;;7.40;2.40;;;;;;;13.13;63.56;99926.16;229304;1196;138205;-74
2021/09/24 17:12:14;;;;;;;9.10;3.00;;;;;;;13.05;64.05;99930.61;228536;1196;138797;-75
2021/09/24 17:17:18;;;;;;;9.30;3.10;;;;;;;12.98;64.89;99941.52;228590;1197;138563;-74
2021/09/24 17:22:20;;;;;;;5.80;2.70;;;;;;;12.84;65.52;99951.77;229338;1197;141072;-74
2021/09/24 17:27:22;;;;;;;8.30;3.80;;;;;;;12.74;66.04;99957.79;229512;1196;138313;-76
2021/09/24 17:32:24;;;;;;;6.00;2.60;;;;;;;12.59;66.82;99962.73;230080;1196;137906;-77
2021/09/24 17:37:26;;;;;;;12.10;3.60;;;;;;;12.54;67.28;99969.14;229853;1196;138276;-78
2021/09/24 17:42:27;;;;;;;5.80;3.40;;;;;;;12.51;67.62;99979.10;229011;1196;138955;-76
2021/09/24 17:47:29;;;;;;;9.20;4.40;;;;;;;12.52;67.61;99985.34;228924;1196;138646;-73
2021/09/24 17:52:31;;;;;;;7.30;4.00;;;;;;;12.53;67.74;100000.30;230386;1191;138860;-77
2021/09/24 17:57:33;;;;;;;8.80;4.60;;;;;;;12.46;67.87;100008.28;229603;1196;138157;-76
2021/09/24 18:02:35;;;;;;;8.10;4.10;;;;;;;12.42;67.95;100012.15;230068;1196;138340;-74
2021/09/24 18:07:37;;;;;;;6.50;5.20;;;;;;;12.30;68.51;100020.20;229923;1197;139061;-77
2021/09/24 18:12:43;;;;;;;10.00;5.80;;;;;;;12.21;68.87;100029.11;230275;1196;138843;-76
2021/09/24 18:17:45;;;;;;;9.10;5.10;;;;;;;12.15;69.06;100028.98;230267;1195;139515;-76
2021/09/24 18:22:47;;;;;;;8.50;4.40;;;;;;;12.14;69.13;100028.95;229121;1196;138480;-78
2021/09/24 18:27:49;;;;;;;9.20;3.10;;;;;;;12.20;68.89;100036.61;229953;1196;138283;-75
2021/09/24 18:32:50;;;;;;;8.40;4.20;;;;;;;12.12;69.25;100038.89;230479;1195;138275;-80
2021/09/24 18:37:54;;;;;;;9.90;5.10;;;;;;;12.10;69.77;100045.48;229781;1196;138553;-75
2021/09/24 18:42:55;;;;;;;9.50;4.40;;;;;;;11.94;69.85;100047.56;228940;1195;138631;-76
2021/09/24 18:47:58;;;;;;;9.50;4.90;;;;;;;11.89;70.17;100053.63;230338;1195;138874;-74
2021/09/24 18:53:00;;;;;;;8.90;4.70;;;;;;;11.84;70.28;100060.98;229507;1197;138696;-74
2021/09/24 18:58:02;;;;;;;8.40;4.70;;;;;;;11.89;70.28;100062.41;230314;1195;138604;-77
2021/09/24 19:03:04;;;;;;;7.40;3.90;;;;;;;11.80;70.51;100064.85;229093;1196;138001;-75
2021/09/24 19:08:06;;;;;;;6.50;3.80;;;;;;;11.68;71.24;100066.98;229832;1196;138840;-74
2021/09/24 19:13:08;;;;;;;11.00;5.30;;;;;;;11.60;71.72;100060.84;229748;1200;138045;-74
2021/09/24 19:18:10;;;;;;;11.10;6.00;;;;;;;11.51;72.26;100066.52;229283;1197;139191;-76
2021/09/24 19:23:12;;;;;;;15.60;5.20;;;;;;;11.49;72.45;100075.05;230419;1190;139375;-76
2021/09/24 19:28:13;;;;;;;8.40;4.40;;;;;;;11.44;72.53;100078.23;229985;1197;138840;-73
2021/09/24 19:33:15;;;;;;;9.90;5.40;;;;;;;11.43;72.38;100086.34;230231;1196;138508;-74
2021/09/24 19:38:17;;;;;;;11.60;5.00;;;;;;;11.31;73.03;100089.14;229246;1196;138308;-74
2021/09/24 19:43:20;;;;;;;11.30;4.90;;;;;;;11.20;73.70;100092.32;228712;1196;138405;-73
2021/09/24 19:48:22;;;;;;;11.00;5.20;;;;;;;11.20;73.68;100098.70;229714;1196;138761;-75
2021/09/24 19:53:24;;;;;;;11.50;5.40;;;;;;;11.29;73.54;100103.73;230192;1195;138896;-75
2021/09/24 19:58:26;;;;;;;11.20;5.20;;;;;;;11.21;74.20;100109.33;229640;1196;138932;-72
2021/09/24 20:03:27;;;;;;;10.50;5.00;;;;;;;11.09;74.78;100114.48;229613;1196;138852;-75
2021/09/24 20:08:30;;;;;;;12.80;4.90;;;;;;;11.05;74.91;100116.13;229842;1196;138709;-74
2021/09/24 20:13:31;;;;;;;12.30;5.70;;;;;;;11.02;75.08;100121.71;230747;1196;138574;-76
2021/09/24 20:18:33;;;;;;;15.20;6.40;;;;;;;11.06;75.30;100124.52;230077;1196;139271;-79
2021/09/24 20:23:35;;;;;;;10.70;5.10;;;;;;;11.02;75.43;100129.15;230320;1195;138493;-77
2021/09/24 20:28:37;;;;;;;11.80;4.80;;;;;;;10.93;75.75;100130.95;230568;1195;138580;-75
2021/09/24 20:33:38;;;;;;;14.60;5.20;;;;;;;10.97;75.68;100131.77;230581;1196;139604;-74
2021/09/24 20:38:40;;;;;;;13.40;5.00;;;;;;;10.98;75.69;100133.08;230043;1196;139472;-78
2021/09/24 20:43:42;;;;;;;10.00;4.40;;;;;;;10.98;75.56;100130.02;230325;1196;138765;-78
2021/09/24 20:48:44;;;;;;;11.60;4.90;;;;;;;10.98;75.50;100131.48;230471;1195;139177;-78
2021/09/24 20:53:46;;;;;;;13.30;7.50;;;;;;;10.93;75.62;100127.79;230195;1196;138982;-76
2021/09/24 20:58:47;;;;;;;11.50;4.50;;;;;;;10.99;75.25;100134.08;230296;1196;139611;-76
2021/09/24 21:03:49;;;;;;;15.00;5.10;;;;;;;11.02;75.04;100129.77;230020;1196;138900;-74
2021/09/24 21:08:51;;;;;;;10.20;4.30;;;;;;;11.03;75.03;100129.35;230253;1196;138638;-75
2021/09/24 21:13:52;;;;;;;15.50;6.10;;;;;;;10.96;75.18;100132.27;230016;1197;138724;-74
2021/09/24 21:18:54;;;;;;;12.30;4.10;;;;;;;10.96;75.12;100134.89;230242;1196;138742;-76
2021/09/24 21:23:56;;;;;;;10.70;4.50;;;;;;;10.92;75.18;100138.13;228855;1189;138409;-77
2021/09/24 21:28:58;;;;;;;10.10;3.70;;;;;;;10.94;74.90;100137.59;229609;1196;138715;-75
2021/09/24 21:34:00;;;;;;;12.10;4.30;;;;;;;10.93;74.91;100135.20;229247;1196;139122;-76
2021/09/24 21:39:03;;;;;;;12.90;4.10;;;;;;;10.95;74.78;100136.58;229215;1196;138845;-75
2021/09/24 21:44:05;;;;;;;10.10;3.50;;;;;;;10.95;74.91;100129.84;229637;1195;138512;-74
2021/09/24 21:49:07;;;;;;;10.00;4.10;;;;;;;10.89;75.10;100136.48;229541;1200;139263;-76
2021/09/24 21:54:09;;;;;;;10.60;4.30;;;;;;;10.86;75.34;100139.63;229570;1196;138915;-78
2021/09/24 21:59:11;;;;;;;7.30;3.60;;;;;;;10.89;75.25;100144.66;229915;1195;138874;-76
2021/09/24 22:04:12;;;;;;;9.40;4.20;;;;;;;10.90;75.21;100146.60;230130;1195;137929;-76
2021/09/24 22:09:14;;;;;;;10.50;3.70;;;;;;;10.86;75.37;100147.35;230244;1195;138138;-76
2021/09/24 22:14:16;;;;;;;12.60;4.00;;;;;;;10.79;75.62;100147.77;229229;1196;138801;-71
2021/09/24 22:19:18;;;;;;;14.10;4.60;;;;;;;10.75;76.08;100151.03;230067;1196;139890;-74
2021/09/24 22:24:19;;;;;;;10.10;4.10;;;;;;;10.87;76.01;100157.71;229925;1196;139357;-74
2021/09/24 22:29:21;;;;;;;14.90;4.40;;;;;;;10.95;75.68;100158.59;229826;1196;138753;-76
2021/09/24 22:34:23;;;;;;;9.70;3.20;;;;;;;11.00;75.66;100159.50;229510;1197;138394;-75
2021/09/24 22:39:25;;;;;;;9.10;3.70;;;;;;;11.06;76.06;100157.16;229782;1195;138931;-74
2021/09/24 22:44:27;;;;;;;9.40;3.40;;;;;;;11.16;76.39;100162.27;229558;1196;138807;-76
2021/09/24 22:49:28;;;;;;;11.00;3.70;;;;;;;11.21;76.62;100171.77;229828;1195;138731;-75
2021/09/24 22:54:30;;;;;;;9.40;4.20;;;;;;;11.24;76.68;100165.10;229443;1196;139030;-76
2021/09/24 22:59:32;;;;;;;17.40;7.70;;;;;;;11.19;77.35;100162.23;229578;1196;138678;-75
2021/09/24 23:04:35;;;;;;;14.50;4.50;;;;;;;11.26;77.75;100156.73;229725;1196;138829;-76